createdAt,value
2022-11-23T00:01:36.927Z,99081.34
2022-11-23T00:04:09.160Z,99081.47
2022-11-23T00:06:38.131Z,99073.31
2022-11-23T00:09:08.366Z,99072.16
2022-11-23T00:11:36.582Z,99075.50
2022-11-23T00:14:05.141Z,99079.81
2022-11-23T00:16:33.287Z,99076.19
2022-11-23T00:19:02.572Z,99077.91
2022-11-23T00:21:32.828Z,99077.06
2022-11-23T00:24:01.645Z,99071.81
2022-11-23T00:26:29.485Z,99079.81
2022-11-23T00:28:57.427Z,99073.81
2022-11-23T00:31:27.968Z,99077.31
2022-11-23T00:33:57.703Z,99080.66
2022-11-23T00:36:27.303Z,99080.56
2022-11-23T00:38:55.987Z,99079.88
2022-11-23T00:41:27.006Z,99073.63
2022-11-23T00:43:55.570Z,99081.69
2022-11-23T00:46:30.012Z,99071.50
2022-11-23T00:48:58.573Z,99090.72
2022-11-23T00:51:32.782Z,99094.25
2022-11-23T00:54:02.538Z,99090.78
2022-11-23T00:56:34.780Z,99082.91
2022-11-23T00:59:04.107Z,99097.00
2022-11-23T01:01:37.398Z,99090.88
2022-11-23T01:04:08.446Z,99090.88
2022-11-23T01:06:40.837Z,99088.50
2022-11-23T01:09:17.954Z,99096.31
2022-11-23T01:11:46.165Z,99097.25
2022-11-23T01:14:14.094Z,99089.34
2022-11-23T01:16:42.552Z,99086.03
2022-11-23T01:19:15.627Z,99086.88
2022-11-23T01:21:44.029Z,99094.50
2022-11-23T01:24:26.041Z,99091.84
2022-11-23T01:26:55.630Z,99093.06
2022-11-23T01:29:24.196Z,99092.94
2022-11-23T01:31:52.449Z,99100.09
2022-11-23T01:34:20.781Z,99102.75
2022-11-23T01:36:48.935Z,99097.53
2022-11-23T01:39:16.856Z,99101.63
2022-11-23T01:41:46.057Z,99093.66
2022-11-23T01:44:29.443Z,99103.84
2022-11-23T01:47:11.009Z,99107.28
2022-11-23T01:49:48.393Z,99110.97
2022-11-23T01:52:24.996Z,99101.53
2022-11-23T01:55:01.527Z,99112.59
2022-11-23T01:57:39.203Z,99115.28
2022-11-23T02:00:09.196Z,99113.56
2022-11-23T02:02:57.620Z,99115.00
2022-11-23T02:05:37.482Z,99107.78
2022-11-23T02:08:07.408Z,99098.72
2022-11-23T02:10:36.674Z,99119.47
2022-11-23T02:13:12.699Z,99105.13
2022-11-23T02:15:41.380Z,99113.88
2022-11-23T02:18:19.800Z,99123.22
2022-11-23T02:20:51.198Z,99124.16
2022-11-23T02:23:46.601Z,99123.13
2022-11-23T02:26:38.034Z,99119.59
2022-11-23T02:29:24.358Z,99124.88
2022-11-23T02:31:53.879Z,99115.34
2022-11-23T02:34:25.139Z,99121.16
2022-11-23T02:36:57.785Z,99113.91
2022-11-23T02:39:44.882Z,99114.69
2022-11-23T02:42:13.179Z,99125.44
2022-11-23T02:45:08.652Z,99118.97
2022-11-23T02:47:38.183Z,99120.13
2022-11-23T02:50:06.841Z,99109.38
2022-11-23T02:52:35.050Z,99096.50
2022-11-23T02:55:02.967Z,99107.56
2022-11-23T02:57:30.910Z,99100.53
2022-11-23T02:59:59.039Z,99097.94
2022-11-23T03:02:26.958Z,99099.69
2022-11-23T03:04:55.323Z,99097.88
2022-11-23T03:07:23.485Z,99093.50
2022-11-23T03:09:51.637Z,99072.81
2022-11-23T03:12:21.767Z,99093.66
2022-11-23T03:14:49.604Z,99098.31
2022-11-23T03:17:18.744Z,99092.41
2022-11-23T03:19:46.949Z,99101.34
2022-11-23T03:22:14.839Z,99096.09
2022-11-23T03:24:42.633Z,99089.94
2022-11-23T03:27:15.203Z,99092.66
2022-11-23T03:29:45.102Z,99093.59
2022-11-23T03:32:18.387Z,99081.25
2022-11-23T03:34:50.138Z,99099.03
2022-11-23T03:37:20.370Z,99099.78
2022-11-23T03:39:48.756Z,99098.09
2022-11-23T03:42:35.350Z,99100.91
2022-11-23T03:45:03.796Z,99089.34
2022-11-23T03:47:32.088Z,99087.88
2022-11-23T03:50:00.106Z,99093.72
2022-11-23T03:52:28.161Z,99089.03
2022-11-23T03:54:57.195Z,99079.44
2022-11-23T03:57:25.178Z,99084.59
2022-11-23T03:59:54.535Z,99089.03
2022-11-23T04:02:23.581Z,99094.47
2022-11-23T04:05:02.327Z,99096.19
2022-11-23T04:07:50.176Z,99100.84
2022-11-23T04:10:19.962Z,99096.44
2022-11-23T04:13:03.183Z,99100.06
2022-11-23T04:15:31.282Z,99094.03
2022-11-23T04:18:00.680Z,99097.00
2022-11-23T04:20:28.927Z,99095.44
2022-11-23T04:22:56.997Z,99099.97
2022-11-23T04:25:27.799Z,99086.44
2022-11-23T04:27:56.637Z,99089.00
2022-11-23T04:30:25.401Z,99086.50
2022-11-23T04:32:56.809Z,99084.88
2022-11-23T04:35:24.996Z,99091.91
2022-11-23T04:37:54.014Z,99088.31
2022-11-23T04:40:25.506Z,99088.38
2022-11-23T04:43:03.504Z,99086.44
2022-11-23T04:45:39.913Z,99089.69
2022-11-23T04:48:13.680Z,99093.31
2022-11-23T04:50:46.618Z,99091.41
2022-11-23T04:53:18.993Z,99094.06
2022-11-23T04:55:50.923Z,99086.09
2022-11-23T04:58:18.822Z,99088.84
2022-11-23T05:00:51.577Z,99084.53
2022-11-23T05:03:20.241Z,99083.84
2022-11-23T05:05:50.016Z,99082.41
2022-11-23T05:08:18.861Z,99086.25
2022-11-23T05:11:01.561Z,99085.75
2022-11-23T05:13:30.653Z,99085.91
2022-11-23T05:16:00.460Z,99079.31
2022-11-23T05:18:30.181Z,99091.75
2022-11-23T05:20:58.519Z,99094.72
2022-11-23T05:23:28.172Z,99095.78
2022-11-23T05:25:57.602Z,99094.13
2022-11-23T05:28:41.766Z,99096.19
2022-11-23T05:31:13.742Z,99091.97
2022-11-23T05:33:43.786Z,99086.84
2022-11-23T05:36:14.249Z,99090.34
2022-11-23T05:38:48.573Z,99088.78
2022-11-23T05:41:22.728Z,99094.13
2022-11-23T05:43:55.776Z,99092.41
2022-11-23T05:46:28.247Z,99087.25
2022-11-23T05:48:56.453Z,99089.22
2022-11-23T05:51:25.646Z,99093.16
2022-11-23T05:53:53.799Z,99089.97
2022-11-23T05:56:40.146Z,99101.78
2022-11-23T05:59:15.991Z,99103.84
2022-11-23T06:01:48.639Z,99101.47
2022-11-23T06:04:24.556Z,99107.13
2022-11-23T06:06:54.929Z,99107.53
2022-11-23T06:09:22.871Z,99103.47
2022-11-23T06:11:54.069Z,99097.00
2022-11-23T06:14:22.310Z,99101.75
2022-11-23T06:16:52.045Z,99110.84
2022-11-23T06:19:32.198Z,99106.88
2022-11-23T06:22:00.294Z,99113.28
2022-11-23T06:24:33.865Z,99110.16
2022-11-23T06:27:20.583Z,99113.97
2022-11-23T06:29:51.363Z,99107.94
2022-11-23T06:32:21.471Z,99104.56
2022-11-23T06:34:49.879Z,99100.38
2022-11-23T06:37:18.230Z,99098.81
2022-11-23T06:39:52.182Z,99106.81
2022-11-23T06:45:15.342Z,99113.72
2022-11-23T06:47:45.012Z,99115.69
2022-11-23T06:50:14.907Z,99116.78
2022-11-23T06:52:45.357Z,99122.94
2022-11-23T06:55:13.295Z,99120.38
2022-11-23T06:57:43.274Z,99127.47
2022-11-23T07:00:14.925Z,99131.03
2022-11-23T07:02:44.544Z,99131.31
2022-11-23T07:05:14.935Z,99138.50
2022-11-23T07:07:43.304Z,99138.41
2022-11-23T07:10:18.629Z,99134.13
2022-11-23T07:12:50.042Z,99128.88
2022-11-23T07:15:21.408Z,99141.28
2022-11-23T07:17:51.775Z,99140.50
2022-11-23T07:20:21.942Z,99135.22
2022-11-23T07:23:01.616Z,99139.56
2022-11-23T07:25:32.131Z,99141.59
2022-11-23T07:28:03.228Z,99133.97
2022-11-23T07:30:34.546Z,99135.84
2022-11-23T07:33:12.811Z,99137.00
2022-11-23T07:35:43.284Z,99147.72
2022-11-23T07:38:11.245Z,99145.06
2022-11-23T07:40:41.084Z,99151.31
2022-11-23T07:43:16.807Z,99150.59
2022-11-23T07:45:55.165Z,99150.53
2022-11-23T07:48:25.053Z,99149.66
2022-11-23T07:50:54.347Z,99152.16
2022-11-23T07:53:23.791Z,99151.09
2022-11-23T07:55:59.448Z,99159.56
2022-11-23T07:58:29.263Z,99153.25
2022-11-23T08:00:57.533Z,99153.03
2022-11-23T08:03:28.821Z,99155.47
2022-11-23T08:05:57.400Z,99148.97
2022-11-23T08:08:25.653Z,99148.47
2022-11-23T08:10:54.604Z,99155.91
2022-11-23T08:13:23.386Z,99155.69
2022-11-23T08:15:55.532Z,99144.22
2022-11-23T08:18:31.453Z,99156.34
2022-11-23T08:21:01.915Z,99143.22
2022-11-23T08:23:32.706Z,99147.44
2022-11-23T08:26:10.372Z,99141.78
2022-11-23T08:28:41.756Z,99142.41
2022-11-23T08:31:16.983Z,99140.22
2022-11-23T08:33:44.930Z,99139.97
2022-11-23T08:36:12.751Z,99141.38
2022-11-23T08:38:40.977Z,99136.78
2022-11-23T08:41:10.131Z,99144.50
2022-11-23T08:43:38.509Z,99152.94
2022-11-23T08:46:10.900Z,99148.88
2022-11-23T08:48:39.489Z,99145.88
2022-11-23T08:51:08.173Z,99140.44
2022-11-23T08:53:36.836Z,99149.78
2022-11-23T08:56:06.768Z,99144.97
2022-11-23T08:58:35.005Z,99153.38
2022-11-23T09:01:07.295Z,99143.22
2022-11-23T09:03:35.406Z,99149.00
2022-11-23T09:06:03.660Z,99147.72
2022-11-23T09:08:31.890Z,99140.22
2022-11-23T09:11:07.925Z,99138.94
2022-11-23T09:13:37.397Z,99154.41
2022-11-23T09:16:07.477Z,99147.03
2022-11-23T09:18:36.582Z,99149.19
2022-11-23T09:21:05.934Z,99143.53
2022-11-23T09:23:34.737Z,99154.69
2022-11-23T09:26:05.703Z,99145.53
2022-11-23T09:28:34.643Z,99158.41
2022-11-23T09:31:05.019Z,99149.22
2022-11-23T09:33:33.481Z,99148.03
2022-11-23T09:36:04.274Z,99148.50
2022-11-23T09:38:55.079Z,99163.25
2022-11-23T09:41:38.347Z,99150.38
2022-11-23T09:44:49.713Z,99157.25
2022-11-23T09:48:07.358Z,99147.38
2022-11-23T09:50:52.652Z,99148.91
2022-11-23T09:53:54.240Z,99146.84
2022-11-23T09:56:36.521Z,99148.41
2022-11-23T09:59:18.781Z,99140.06
2022-11-23T10:01:46.988Z,99143.56
2022-11-23T10:04:20.711Z,99143.03
2022-11-23T10:07:18.059Z,99137.53
2022-11-23T10:10:02.668Z,99139.09
2022-11-23T10:13:06.040Z,99136.13
2022-11-23T10:16:07.479Z,99135.09
2022-11-23T10:18:58.066Z,99135.69
2022-11-23T10:21:59.545Z,99135.41
2022-11-23T10:24:39.042Z,99135.16
2022-11-23T10:27:16.686Z,99131.34
2022-11-23T10:29:45.486Z,99130.31
2022-11-23T10:32:42.516Z,99127.25
2022-11-23T10:35:34.288Z,99127.09
2022-11-23T10:38:26.848Z,99122.34
2022-11-23T10:41:15.856Z,99123.69
2022-11-23T10:44:19.155Z,99123.69
2022-11-23T10:46:47.488Z,99126.25
2022-11-23T10:49:29.648Z,99124.00
2022-11-23T10:52:05.958Z,99126.56
2022-11-23T10:54:58.990Z,99110.56
2022-11-23T10:57:42.652Z,99113.03
2022-11-23T11:00:16.554Z,99108.38
2022-11-23T11:02:54.892Z,99100.38
2022-11-23T11:06:09.575Z,99102.78
2022-11-23T11:09:00.451Z,99092.97
2022-11-23T11:11:34.733Z,99092.13
2022-11-23T11:14:25.333Z,99087.53
2022-11-23T11:16:57.978Z,99089.34
2022-11-23T11:19:35.639Z,99086.03
2022-11-23T11:22:33.527Z,99083.09
2022-11-23T11:25:04.909Z,99077.53
2022-11-23T11:27:33.270Z,99064.97
2022-11-23T11:30:20.616Z,99065.34
2022-11-23T11:33:13.822Z,99050.97
2022-11-23T11:35:49.450Z,99051.59
2022-11-23T11:38:24.532Z,99034.66
2022-11-23T11:40:56.492Z,99047.69
2022-11-23T11:43:48.641Z,99042.06
2022-11-23T11:46:31.276Z,99035.84
2022-11-23T11:49:06.490Z,99038.34
2022-11-23T11:51:42.943Z,99026.81
2022-11-23T11:54:37.453Z,99030.88
2022-11-23T11:57:45.771Z,99027.34
2022-11-23T12:00:19.721Z,99032.50
2022-11-23T12:03:15.006Z,99030.41
2022-11-23T12:05:51.315Z,99018.88
2022-11-23T12:08:45.752Z,99012.34
2022-11-23T12:11:13.912Z,99016.09
2022-11-23T12:13:46.947Z,99015.00
2022-11-23T12:17:10.153Z,99014.94
2022-11-23T12:20:05.749Z,99013.13
2022-11-23T12:23:12.409Z,99007.84
2022-11-23T12:26:11.654Z,99012.03
2022-11-23T12:29:01.886Z,99004.69
2022-11-23T12:31:54.584Z,99000.88
2022-11-23T12:34:56.637Z,99005.13
2022-11-23T12:37:53.568Z,98999.78
2022-11-23T12:40:46.064Z,98989.97
2022-11-23T12:43:38.325Z,98983.88
2022-11-23T12:46:33.746Z,98984.31
2022-11-23T12:49:39.380Z,98979.84
2022-11-23T12:52:30.112Z,98971.75
2022-11-23T12:55:20.112Z,98972.47
2022-11-23T12:58:33.698Z,98963.81
2022-11-23T13:01:32.469Z,98969.16
2022-11-23T13:05:01.856Z,98964.78
2022-11-23T13:08:02.515Z,98971.81
2022-11-23T13:10:52.218Z,98964.47
2022-11-23T13:13:33.418Z,98955.00
2022-11-23T13:16:22.105Z,98955.63
2022-11-23T13:19:11.284Z,98951.69
2022-11-23T13:21:44.188Z,98944.84
2022-11-23T13:24:30.862Z,98953.28
2022-11-23T13:27:14.825Z,98943.56
2022-11-23T13:29:52.208Z,98940.91
2022-11-23T13:32:38.861Z,98932.59
2022-11-23T13:35:17.300Z,98925.44
2022-11-23T13:38:14.564Z,98932.41
2022-11-23T13:40:45.601Z,98927.91
2022-11-23T13:43:43.012Z,98927.59
2022-11-23T13:46:29.557Z,98922.88
2022-11-23T13:49:01.663Z,98910.47
2022-11-23T13:51:34.151Z,98908.44
2022-11-23T13:54:06.460Z,98908.25
2022-11-23T13:56:44.505Z,98900.31
2022-11-23T13:59:24.816Z,98898.41
2022-11-23T14:02:08.329Z,98894.88
2022-11-23T14:04:42.318Z,98891.56
2022-11-23T14:07:29.916Z,98880.88
2022-11-23T14:10:21.087Z,98879.59
2022-11-23T14:13:08.969Z,98878.22
2022-11-23T14:15:41.218Z,98879.19
2022-11-23T14:18:55.012Z,98875.66
2022-11-23T14:21:42.015Z,98872.22
2022-11-23T14:24:50.677Z,98870.06
2022-11-23T14:27:53.444Z,98867.53
2022-11-23T14:30:47.897Z,98866.03
2022-11-23T14:33:52.842Z,98859.91
2022-11-23T14:36:46.804Z,98871.56
2022-11-23T14:39:51.907Z,98870.06
2022-11-23T14:42:25.912Z,98871.34
2022-11-23T14:44:56.310Z,98877.66
2022-11-23T14:47:31.358Z,98877.53
2022-11-23T14:49:59.766Z,98874.44
2022-11-23T14:52:37.117Z,98875.28
2022-11-23T14:55:06.845Z,98876.25
2022-11-23T14:57:47.041Z,98863.88
2022-11-23T15:00:41.536Z,98867.72
2022-11-23T15:03:49.319Z,98870.81
2022-11-23T15:06:16.784Z,98872.72
2022-11-23T15:09:13.895Z,98864.09
2022-11-23T15:11:41.912Z,98857.44
2022-11-23T15:14:26.717Z,98860.09
2022-11-23T15:16:55.967Z,98864.78
2022-11-23T15:19:29.800Z,98867.25
2022-11-23T15:21:58.648Z,98864.72
2022-11-23T15:24:28.398Z,98874.00
2022-11-23T15:27:10.780Z,98871.88
2022-11-23T15:29:40.970Z,98873.69
2022-11-23T15:32:34.239Z,98887.44
2022-11-23T15:35:13.257Z,98884.78
2022-11-23T15:37:48.987Z,98889.28
2022-11-23T15:40:19.406Z,98896.31
2022-11-23T15:42:51.493Z,98885.00
2022-11-23T15:45:47.181Z,98896.22
2022-11-23T15:48:21.353Z,98903.56
2022-11-23T15:50:53.024Z,98905.19
2022-11-23T15:53:53.122Z,98899.94
2022-11-23T15:56:38.401Z,98907.75
2022-11-23T15:59:43.429Z,98919.28
2022-11-23T16:02:27.291Z,98916.63
2022-11-23T16:05:15.767Z,98923.47
2022-11-23T16:08:01.852Z,98918.00
2022-11-23T16:10:35.386Z,98925.06
2022-11-23T16:13:06.277Z,98940.13
2022-11-23T16:15:42.024Z,98934.69
2022-11-23T16:18:28.556Z,98938.75
2022-11-23T16:21:03.049Z,98938.75
2022-11-23T16:23:49.488Z,98942.06
2022-11-23T16:26:18.183Z,98951.03
2022-11-23T16:28:58.335Z,98950.81
2022-11-23T16:31:42.903Z,98968.44
2022-11-23T16:34:31.039Z,98974.97
2022-11-23T16:37:04.263Z,98978.06
2022-11-23T16:39:32.334Z,98988.97
2022-11-23T16:42:00.316Z,98999.53
2022-11-23T16:44:31.239Z,98998.56
2022-11-23T16:47:25.280Z,99003.25
2022-11-23T16:49:54.380Z,99010.50
2022-11-23T16:52:24.346Z,99011.38
2022-11-23T16:54:55.828Z,99022.03
2022-11-23T16:57:34.197Z,99026.53
2022-11-23T17:00:07.653Z,99030.56
2022-11-23T17:02:36.248Z,99030.00
2022-11-23T17:05:13.470Z,99031.75
2022-11-23T17:07:43.425Z,99030.53
2022-11-23T17:10:16.170Z,99039.28
2022-11-23T17:12:54.991Z,99039.41
2022-11-23T17:15:24.128Z,99041.31
2022-11-23T17:17:52.519Z,99047.59
2022-11-23T17:20:20.987Z,99058.25
2022-11-23T17:22:52.487Z,99048.84
2022-11-23T17:25:20.692Z,99062.19
2022-11-23T17:27:49.892Z,99061.34
2022-11-23T17:30:23.672Z,99070.97
2022-11-23T17:32:52.100Z,99069.34
2022-11-23T17:35:21.037Z,99077.56
2022-11-23T17:37:49.790Z,99079.28
2022-11-23T17:40:21.946Z,99093.47
2022-11-23T17:42:50.482Z,99094.53
2022-11-23T17:45:18.615Z,99100.72
2022-11-23T17:47:47.270Z,99103.50
2022-11-23T17:50:19.584Z,99109.69
2022-11-23T17:52:48.539Z,99106.34
2022-11-23T17:55:18.282Z,99115.13
2022-11-23T17:57:46.329Z,99107.00
2022-11-23T18:00:24.941Z,99112.44
2022-11-23T18:02:54.040Z,99131.31
2022-11-23T18:05:22.641Z,99127.06
2022-11-23T18:07:53.786Z,99128.66
2022-11-23T18:10:23.380Z,99127.22
2022-11-23T18:12:51.879Z,99133.53
2022-11-23T18:15:19.924Z,99131.03
2022-11-23T18:17:48.014Z,99134.78
2022-11-23T18:20:18.882Z,99146.19
2022-11-23T18:22:47.692Z,99149.16
2022-11-23T18:25:16.361Z,99157.28
2022-11-23T18:27:44.418Z,99159.09
2022-11-23T18:30:16.495Z,99167.84
2022-11-23T18:32:44.781Z,99168.13
2022-11-23T18:35:12.622Z,99171.16
2022-11-23T18:37:40.817Z,99175.75
2022-11-23T18:40:10.104Z,99179.47
2022-11-23T18:42:38.399Z,99195.75
2022-11-23T18:45:11.531Z,99185.28
2022-11-23T18:47:41.983Z,99205.16
2022-11-23T18:50:10.324Z,99202.13
2022-11-23T18:52:38.842Z,99202.00
2022-11-23T18:55:09.173Z,99210.22
2022-11-23T18:57:38.778Z,99209.44
2022-11-23T19:00:11.854Z,99211.50
2022-11-23T19:02:42.104Z,99210.16
2022-11-23T19:05:10.657Z,99220.13
2022-11-23T19:07:38.960Z,99229.34
2022-11-23T19:10:08.297Z,99234.69
2022-11-23T19:12:37.040Z,99220.66
2022-11-23T19:15:06.750Z,99227.22
2022-11-23T19:17:35.032Z,99227.22
2022-11-23T19:20:07.267Z,99236.06
2022-11-23T19:22:36.710Z,99227.22
2022-11-23T19:25:06.963Z,99237.88
2022-11-23T19:27:37.038Z,99243.97
2022-11-23T19:30:09.821Z,99255.59
2022-11-23T19:32:38.518Z,99261.88
2022-11-23T19:35:07.794Z,99269.38
2022-11-23T19:37:41.168Z,99278.97
2022-11-23T19:40:13.186Z,99287.34
2022-11-23T19:42:43.244Z,99311.22
2022-11-23T19:45:11.884Z,99309.41
2022-11-23T19:47:40.518Z,99322.66
2022-11-23T19:50:10.913Z,99333.31
2022-11-23T19:53:09.906Z,99339.50
2022-11-23T19:55:28.449Z,99348.25
2022-11-23T19:57:57.813Z,99357.00
2022-11-23T20:00:26.043Z,99359.78
2022-11-23T20:02:54.883Z,99371.03
2022-11-23T20:05:23.538Z,99368.38
2022-11-23T20:07:52.672Z,99387.63
2022-11-23T20:10:22.207Z,99393.66
2022-11-23T20:12:50.873Z,99391.84
2022-11-23T20:15:21.596Z,99408.59
2022-11-23T20:17:51.544Z,99413.06
2022-11-23T20:20:20.945Z,99419.19
2022-11-23T20:22:50.976Z,99421.06
2022-11-23T20:25:20.376Z,99425.63
2022-11-23T20:27:49.389Z,99435.34
2022-11-23T20:30:19.379Z,99430.00
2022-11-23T20:32:51.850Z,99441.28
2022-11-23T20:35:23.354Z,99444.91
2022-11-23T20:37:52.745Z,99455.47
2022-11-23T20:40:22.280Z,99458.38
2022-11-23T20:42:50.813Z,99458.63
2022-11-23T20:45:19.609Z,99468.53
2022-11-23T20:47:48.464Z,99478.59
2022-11-23T20:50:17.323Z,99475.22
2022-11-23T20:52:45.918Z,99476.63
2022-11-23T20:55:16.476Z,99484.41
2022-11-23T20:57:45.957Z,99500.41
2022-11-23T21:00:17.210Z,99497.84
2022-11-23T21:02:52.974Z,99503.06
2022-11-23T21:05:21.789Z,99504.88
2022-11-23T21:07:50.729Z,99514.53
2022-11-23T21:10:37.511Z,99501.84
2022-11-23T21:13:48.518Z,99500.91
2022-11-23T21:16:17.778Z,99518.34
2022-11-23T21:18:47.062Z,99522.59
2022-11-23T21:21:15.567Z,99538.56
2022-11-23T21:23:46.130Z,99534.28
2022-11-23T21:26:22.594Z,99543.91
2022-11-23T21:28:54.974Z,99557.84
2022-11-23T21:31:23.492Z,99547.19
2022-11-23T21:33:53.997Z,99557.69
2022-11-23T21:36:23.887Z,99554.22
2022-11-23T21:38:52.509Z,99561.22
2022-11-23T21:41:20.568Z,99568.09
2022-11-23T21:43:52.719Z,99565.44
2022-11-23T21:46:21.721Z,99573.25
2022-11-23T21:48:54.529Z,99578.53
2022-11-23T21:51:28.729Z,99575.16
2022-11-23T21:54:02.456Z,99589.19
2022-11-23T21:56:32.143Z,99589.25
2022-11-23T21:59:00.933Z,99593.66
2022-11-23T22:01:34.998Z,99603.28
2022-11-23T22:04:09.049Z,99600.63
2022-11-23T22:06:38.621Z,99595.19
2022-11-23T22:09:09.925Z,99605.78
2022-11-23T22:11:41.188Z,99611.97
2022-11-23T22:14:15.368Z,99611.19
2022-11-23T22:16:56.910Z,99609.47
2022-11-23T22:19:24.814Z,99602.13
2022-11-23T22:21:53.018Z,99625.88
2022-11-23T22:24:23.769Z,99634.88
2022-11-23T22:26:51.691Z,99639.38
2022-11-23T22:29:20.429Z,99635.69
2022-11-23T22:31:48.449Z,99638.34
2022-11-23T22:34:16.536Z,99635.69
2022-11-23T22:36:44.475Z,99646.13
2022-11-23T22:39:12.335Z,99647.88
2022-11-23T22:41:40.952Z,99651.34
2022-11-23T22:44:11.708Z,99650.16
2022-11-23T22:46:46.775Z,99655.41
2022-11-23T22:52:09.646Z,99663.09
2022-11-23T22:54:40.598Z,99656.13
2022-11-23T22:57:31.501Z,99668.19
2022-11-23T23:00:22.365Z,99673.53
2022-11-23T23:02:58.838Z,99672.63
2022-11-23T23:05:38.583Z,99675.28
2022-11-23T23:08:19.871Z,99666.53
2022-11-23T23:10:54.375Z,99666.63
2022-11-23T23:13:28.813Z,99670.06
2022-11-23T23:16:27.158Z,99680.03
2022-11-23T23:19:07.934Z,99679.50
2022-11-23T23:21:54.836Z,99684.97
2022-11-23T23:24:23.243Z,99680.06
2022-11-23T23:26:51.115Z,99695.00
2022-11-23T23:29:19.449Z,99691.66
2022-11-23T23:31:47.525Z,99698.09
2022-11-23T23:34:15.316Z,99694.56
2022-11-23T23:36:43.058Z,99702.63
2022-11-23T23:39:12.632Z,99700.03
2022-11-23T23:41:40.683Z,99708.19
2022-11-23T23:44:08.693Z,99708.97
2022-11-23T23:46:37.342Z,99709.84
2022-11-23T23:49:05.126Z,99711.56
2022-11-23T23:51:32.980Z,99711.72
2022-11-23T23:54:00.883Z,99709.75
2022-11-23T23:56:29.396Z,99713.28
2022-11-23T23:58:59.116Z,99708.03
